Warwick, RI (02886)

7:54 AM EST on February 06, 2016 (GMT -0500)
Cedar Tree Point | | Change Station
CLOSE
Current Station
Personal Weather Station
Location: Warwick, RI
Elevation: 6 ft
Nearby Weather Stations
Active Advisory: Special Statement Active Notice: Local Storm Report

Elev 6 ft 41.69 °N, 71.44 °W | Updated 9 minutes ago

Clear
Clear
21.2 °F
Feels Like 21 °F
N
2.0
Wind Variable Wind from North
Gusts 3.0 mph

Today
High -- | Low -- °F
--% Chance of Precip.
Yesterday
High -- | Low -- °F
Precip. -- in
Pressure 30.40 in
Visibility 10.0 miles
Clouds Clear
Windchill 21 °F
Dew Point 19 °F
Humidity 91%
Rainfall 0.00 in
Snow Depth Not available.
6:53 AM 5:07 PM
Waning Crescent, 6% visible
METAR KPVD 061251Z 27007KT 10SM CLR M06/M09 A3039 RMK AO2 SLP292 T10561089 $
Pressure 30.40 in
Visibility 10.0 miles
Clouds Clear
Windchill 21 °F
Dew Point 19 °F
Humidity 91%
Rainfall 0.00 in
Snow Depth Not available.
6:53 AM 5:07 PM
Waning Crescent, 6% visible
METAR KPVD 061251Z 27007KT 10SM CLR M06/M09 A3039 RMK AO2 SLP292 T10561089 $

10-Day Weather Forecast

Almanac

Astronomy

Feb. 06, 2016 Rise Set
Actual Time
Civil Twilight
Nautical Twilight
Astronomical Twilight
Moon
Length of Visible Light
Length of Day
Tomorrow will be .
, % of the Moon is Illuminated

Today's Extremes

State Highs State Lows

Community

WunderPhotos

Upload Photos

1,890,954 photos uploaded!

WunderBlog® & News

Nearby

Air Quality

  Air Quality AQ Index Pollutant
Not available.

Snow Depth

Station Depth Elevation

Earthquake Activity

City Distance Mag. Time & Date
Minimum magnitude displayed is 2.5.

Coastal Water Temperatures

Place Temperature

Stations

Nearby Weather Stations

Station Location Temp. Windchill Dew Point Humidity Wind Precip. Elev Updated Type
                   

Watches & Warnings

Special Statement
Issued: 12:04 AM EST Feb. 6, 2016 – National Weather Service

... Patches of black ice possible overnight into tomorrow...

Temperatures are expected to drop rapidly overnight... into the
teens and low 20s. This will lead to rapid freezing of untreated
roadways and walkways... which could become slippery with black
ice.

Those traveling are urged to use caution and allow for extra time
as the ice may be difficult to see.



1204 am EST Sat Feb 6 2016

... Patches of black ice possible overnight into tomorrow...

Temperatures are expected to drop rapidly overnight... into the
teens and low 20s. This will lead to rapid freezing of untreated
roadways and walkways... which could become slippery with black
ice.

Those traveling are urged to use caution and allow for extra time
as the ice may be difficult to see.